Time;durP1;ratioP1;P1;durP2;ratioP2;P2;SDS_P1;SDS_P2;PMS_P1;PMS_P2;Temp;Humidity;BMP_temperature;BMP_pressure;BME280_temperature;BME280_humidity;BME280_pressure;Samples;Min_cycle;Max_cycle;Signal;HPM_P1;HPM_P2
2021/07/26 00:01:52;;;;;;;;;;;;;;;27.22;51.81;100900.09;5066908;28;19920;-89
2021/07/26 00:04:17;;;;;;;;;;;;;;;27.35;51.09;100901.47;5066644;28;19963;-90
2021/07/26 00:06:43;;;;;;;;;;;;;;;27.23;52.24;100895.41;5069090;28;19924;-90
2021/07/26 00:09:08;;;;;;;;;;;;;;;27.39;51.35;100897.28;5076300;28;19917;-89
2021/07/26 00:11:34;;;;;;;;;;;;;;;27.81;49.97;100893.19;5076236;28;19923;-90
2021/07/26 00:13:59;;;;;;;;;;;;;;;27.92;49.46;100900.22;5074116;28;19974;-89
2021/07/26 00:16:24;;;;;;;;;;;;;;;27.88;49.57;100905.25;5058380;28;19947;-89
2021/07/26 00:18:50;;;;;;;;;;;;;;;27.86;49.67;100899.03;5075104;28;19920;-90
2021/07/26 00:21:15;;;;;;;;;;;;;;;27.71;49.30;100896.19;5073119;28;20075;-89
2021/07/26 00:23:40;;;;;;;;;;;;;;;27.24;50.41;100889.66;5076885;28;19901;-90
2021/07/26 00:26:07;;;;;;;;;;;;;;;27.41;50.98;100892.38;5077223;28;19920;-87
2021/07/26 00:28:32;;;;;;;;;;;;;;;27.75;49.71;100893.91;5057498;28;19920;-90
2021/07/26 00:30:57;;;;;;;;;;;;;;;27.62;50.00;100896.44;5068917;28;19956;-89
2021/07/26 00:34:24;;;;;;;;;;;;;;;27.62;49.89;100890.88;5068149;28;19920;-91
2021/07/26 00:36:31;;;;;;;;;;;;;;;27.45;49.94;100893.75;5058421;28;19923;-90
2021/07/26 00:38:58;;;;;;;;;;;;;;;27.66;49.06;100893.09;5068194;28;19960;-90
2021/07/26 00:41:23;;;;;;;;;;;;;;;27.43;49.82;100886.66;5068094;28;20350;-90
2021/07/26 00:43:49;;;;;;;;;;;;;;;27.37;50.22;100886.34;5067778;28;19924;-90
2021/07/26 00:46:14;;;;;;;;;;;;;;;27.38;49.90;100882.50;5067289;28;19959;-90
2021/07/26 00:48:40;;;;;;;;;;;;;;;27.46;49.77;100869.59;5067949;28;20392;-90
2021/07/26 00:51:05;;;;;;;;;;;;;;;27.44;49.71;100869.78;5066521;28;19925;-90
2021/07/26 00:53:31;;;;;;;;;;;;;;;27.42;50.00;100869.13;5065671;28;19917;-90
2021/07/26 00:55:56;;;;;;;;;;;;;;;27.34;50.20;100861.72;5065638;28;19920;-89
2021/07/26 00:58:22;;;;;;;;;;;;;;;27.43;50.00;100864.41;5065864;28;19917;-90
2021/07/26 01:00:47;;;;;;;;;;;;;;;27.34;50.20;100863.59;5065757;28;19917;-90
2021/07/26 01:03:13;;;;;;;;;;;;;;;26.93;51.15;100863.78;5065900;28;19917;-90
2021/07/26 01:05:38;;;;;;;;;;;;;;;27.20;50.30;100863.28;5065779;28;19916;-90
2021/07/26 01:08:03;;;;;;;;;;;;;;;26.22;52.05;100861.69;5065540;28;19974;-89
2021/07/26 01:10:29;;;;;;;;;;;;;;;26.35;51.74;100866.72;5064823;28;20381;-91
2021/07/26 01:12:54;;;;;;;;;;;;;;;26.13;51.56;100862.75;5065249;28;19917;-89
2021/07/26 01:15:19;;;;;;;;;;;;;;;26.28;51.04;100868.44;5064384;28;19917;-89
2021/07/26 01:18:05;;;;;;;;;;;;;;;26.67;49.86;100868.56;5064982;28;19924;-91
2021/07/26 01:20:31;;;;;;;;;;;;;;;26.68;49.63;100864.75;5065498;28;20362;-91
2021/07/26 01:22:56;;;;;;;;;;;;;;;26.60;50.04;100869.41;5065191;28;19924;-90
2021/07/26 01:25:21;;;;;;;;;;;;;;;26.79;49.52;100866.25;5065167;28;19924;-90
2021/07/26 01:27:47;;;;;;;;;;;;;;;26.46;50.57;100871.03;5064805;28;19917;-91
2021/07/26 01:30:12;;;;;;;;;;;;;;;26.06;51.43;100867.25;5068202;28;19908;-89
2021/07/26 01:32:39;;;;;;;;;;;;;;;25.73;52.44;100868.09;5076957;28;19944;-90
2021/07/26 01:35:05;;;;;;;;;;;;;;;25.81;52.48;100865.31;5077663;28;19916;-91
2021/07/26 01:37:30;;;;;;;;;;;;;;;25.84;52.14;100875.19;5075820;28;19905;-88
2021/07/26 01:39:55;;;;;;;;;;;;;;;25.70;52.82;100868.44;5073639;28;19917;-89
2021/07/26 01:42:21;;;;;;;;;;;;;;;25.97;52.19;100871.94;5067379;28;20070;-90
2021/07/26 01:44:46;;;;;;;;;;;;;;;25.71;53.15;100877.59;5065725;28;19924;-88
2021/07/26 01:47:14;;;;;;;;;;;;;;;26.41;51.30;100868.78;5065235;28;19924;-91
2021/07/26 01:49:47;;;;;;;;;;;;;;;26.70;50.23;100875.66;5063897;28;19921;-88
2021/07/26 01:52:13;;;;;;;;;;;;;;;26.80;50.11;100884.66;5063532;28;19974;-89
2021/07/26 01:54:39;;;;;;;;;;;;;;;26.98;49.82;100880.75;5063851;28;19921;-89
2021/07/26 01:57:04;;;;;;;;;;;;;;;26.26;51.87;100876.09;5064040;28;19921;-89
2021/07/26 01:59:30;;;;;;;;;;;;;;;26.40;51.90;100878.13;5064063;28;19913;-91
2021/07/26 02:01:56;;;;;;;;;;;;;;;26.59;51.64;100878.81;5064235;28;19940;-90
2021/07/26 02:04:21;;;;;;;;;;;;;;;26.40;51.45;100880.06;5064752;28;19917;-89
2021/07/26 02:06:46;;;;;;;;;;;;;;;26.81;50.47;100880.84;5064342;28;19952;-87
2021/07/26 02:09:12;;;;;;;;;;;;;;;26.39;51.69;100876.41;5064031;28;20009;-90
2021/07/26 02:11:37;;;;;;;;;;;;;;;26.42;51.30;100878.84;5064716;28;20023;-91
2021/07/26 02:14:09;;;;;;;;;;;;;;;26.62;50.89;100865.44;5065270;28;19917;-89
2021/07/26 02:16:34;;;;;;;;;;;;;;;27.00;50.02;100873.13;5064415;28;19967;-89
2021/07/26 02:19:00;;;;;;;;;;;;;;;27.14;49.68;100869.56;5065232;28;19924;-92
2021/07/26 02:21:25;;;;;;;;;;;;;;;27.28;49.25;100864.31;5066482;28;19931;-90
2021/07/26 02:23:50;;;;;;;;;;;;;;;26.81;50.27;100869.75;5065018;28;19924;-90
2021/07/26 02:26:16;;;;;;;;;;;;;;;26.98;49.83;100869.66;5064967;28;19916;-93
2021/07/26 02:28:41;;;;;;;;;;;;;;;26.69;51.11;100865.59;5065245;28;19917;-90
2021/07/26 02:31:06;;;;;;;;;;;;;;;26.80;50.88;100862.44;5064491;28;19917;-90
2021/07/26 02:33:31;;;;;;;;;;;;;;;26.90;50.13;100862.22;5065214;28;19923;-90
2021/07/26 02:35:57;;;;;;;;;;;;;;;26.75;50.40;100864.88;5064572;28;19921;-89
2021/07/26 02:38:22;;;;;;;;;;;;;;;27.15;49.28;100865.75;5064941;28;19917;-89
2021/07/26 02:40:47;;;;;;;;;;;;;;;27.10;49.67;100875.69;5066881;28;19913;-89
2021/07/26 02:43:12;;;;;;;;;;;;;;;27.19;49.67;100877.34;5068267;28;19924;-90
2021/07/26 02:45:38;;;;;;;;;;;;;;;26.91;50.78;100875.06;5068206;28;20015;-89
2021/07/26 02:48:03;;;;;;;;;;;;;;;26.95;50.67;100881.13;5068080;28;19936;-92
2021/07/26 02:50:29;;;;;;;;;;;;;;;26.64;51.31;100882.75;5068053;28;20312;-90
2021/07/26 02:52:54;;;;;;;;;;;;;;;26.54;51.58;100879.31;5068029;28;20015;-90
2021/07/26 02:55:19;;;;;;;;;;;;;;;26.62;51.30;100882.06;5068261;28;19917;-89
2021/07/26 02:57:45;;;;;;;;;;;;;;;26.68;51.17;100875.84;5067748;28;19925;-88
2021/07/26 03:00:10;;;;;;;;;;;;;;;26.71;51.25;100880.19;5067292;28;19924;-90
2021/07/26 03:02:36;;;;;;;;;;;;;;;26.98;50.01;100880.75;5068884;28;19917;-91
2021/07/26 03:05:03;;;;;;;;;;;;;;;26.51;52.32;100879.66;5069222;28;19928;-91
2021/07/26 03:07:28;;;;;;;;;;;;;;;26.83;50.94;100877.91;5068529;28;19956;-90
2021/07/26 03:09:53;;;;;;;;;;;;;;;26.86;50.71;100883.94;5068403;28;19974;-90
2021/07/26 03:12:18;;;;;;;;;;;;;;;26.81;50.83;100877.19;5067842;28;19970;-89
2021/07/26 03:14:44;;;;;;;;;;;;;;;26.95;50.97;100881.13;5067880;28;19917;-87
2021/07/26 03:17:09;;;;;;;;;;;;;;;27.18;49.96;100882.06;5067412;28;19917;-89
2021/07/26 03:19:34;;;;;;;;;;;;;;;27.38;49.22;100885.28;5067345;28;19947;-89
2021/07/26 03:22:09;;;;;;;;;;;;;;;26.73;51.29;100883.63;5068134;28;19919;-89
2021/07/26 03:24:34;;;;;;;;;;;;;;;26.39;52.09;100893.06;5067669;28;19939;-89
2021/07/26 03:27:00;;;;;;;;;;;;;;;26.68;51.40;100888.88;5067761;28;19917;-90
2021/07/26 03:29:25;;;;;;;;;;;;;;;26.97;50.57;100891.00;5067773;28;19923;-89
2021/07/26 03:31:50;;;;;;;;;;;;;;;26.64;51.52;100888.31;5050644;28;19988;-90
2021/07/26 03:34:16;;;;;;;;;;;;;;;27.13;50.13;100889.19;5050443;28;19963;-87
2021/07/26 03:36:41;;;;;;;;;;;;;;;27.23;49.74;100893.47;5067034;28;19924;-88
2021/07/26 03:39:07;;;;;;;;;;;;;;;27.27;49.27;100895.94;5065760;28;19917;-89
2021/07/26 03:41:32;;;;;;;;;;;;;;;27.08;50.05;100891.66;5065850;28;19924;-89
2021/07/26 03:43:57;;;;;;;;;;;;;;;25.98;53.67;100891.19;5065519;28;19956;-90
2021/07/26 03:46:22;;;;;;;;;;;;;;;26.39;52.57;100893.06;5065514;28;19917;-90
2021/07/26 03:48:48;;;;;;;;;;;;;;;26.03;53.85;100896.22;5065531;28;19993;-90
2021/07/26 03:51:13;;;;;;;;;;;;;;;25.28;55.78;100889.59;5064968;28;19921;-88
2021/07/26 03:53:38;;;;;;;;;;;;;;;24.81;58.11;100884.59;5064677;28;19963;-89
2021/07/26 03:56:04;;;;;;;;;;;;;;;24.82;57.95;100886.34;5065156;28;20066;-90
2021/07/26 03:58:29;;;;;;;;;;;;;;;25.53;56.19;100888.84;5064797;28;20503;-89
2021/07/26 04:00:54;;;;;;;;;;;;;;;25.51;56.31;100888.16;5065241;28;19916;-91
2021/07/26 04:03:30;;;;;;;;;;;;;;;25.65;55.73;100887.47;5065588;28;19980;-90
2021/07/26 04:06:07;;;;;;;;;;;;;;;25.86;54.81;100886.97;5066837;28;19928;-92
2021/07/26 04:08:36;;;;;;;;;;;;;;;25.51;55.97;100888.16;5066954;28;19924;-91
2021/07/26 04:13:32;;;;;;;;;;;;;;;25.53;56.38;100897.16;5068040;28;20015;-90
2021/07/26 04:15:57;;;;;;;;;;;;;;;24.93;57.57;100902.63;5066798;28;19963;-87
2021/07/26 04:18:25;;;;;;;;;;;;;;;25.68;55.53;100901.00;5066623;28;19925;-90
2021/07/26 04:20:51;;;;;;;;;;;;;;;24.91;57.69;100903.81;5066116;28;19939;-91
2021/07/26 04:23:17;;;;;;;;;;;;;;;24.91;57.77;100892.75;5066104;28;19923;-89
2021/07/26 04:25:42;;;;;;;;;;;;;;;25.61;55.64;100894.41;5065938;28;19916;-89
2021/07/26 04:28:07;;;;;;;;;;;;;;;26.12;54.10;100892.38;5066722;28;19987;-89
2021/07/26 04:30:33;;;;;;;;;;;;;;;27.05;50.70;100895.66;5066572;28;19947;-91
2021/07/26 04:32:58;;;;;;;;;;;;;;;27.16;50.50;100891.59;5066207;28;19939;-90
2021/07/26 04:35:23;;;;;;;;;;;;;;;27.09;50.53;100897.03;5065733;28;19970;-90
2021/07/26 04:37:52;;;;;;;;;;;;;;;27.04;50.33;100903.13;5065410;28;19924;-88
2021/07/26 04:40:19;;;;;;;;;;;;;;;26.89;51.25;100893.84;5065134;28;19919;-92
2021/07/26 04:42:49;;;;;;;;;;;;;;;27.11;50.31;100905.19;5066339;28;19928;-92
2021/07/26 04:45:18;;;;;;;;;;;;;;;27.34;49.86;100900.59;5048928;28;19935;-91
2021/07/26 04:47:46;;;;;;;;;;;;;;;27.08;50.11;100900.00;5065659;28;19920;-90
2021/07/26 04:50:44;;;;;;;;;;;;;;;27.08;50.43;100903.63;5072581;28;19917;-92
2021/07/26 04:55:45;;;;;;;;;;;;;;;27.04;51.00;100899.50;5184839;22;19925;-89
2021/07/26 04:58:13;;;;;;;;;;;;;;;27.16;50.55;100899.94;5075991;28;19917;-91
2021/07/26 05:01:10;;;;;;;;;;;;;;;27.38;50.14;100901.09;5068212;28;19975;-91
2021/07/26 05:08:40;;;;;;;;;;;;;;;26.54;52.69;100904.28;5027842;28;19925;-91
2021/07/26 05:11:06;;;;;;;;;;;;;;;26.69;52.34;100899.78;5026835;28;19977;-92
2021/07/26 05:13:31;;;;;;;;;;;;;;;26.95;51.69;100906.09;5025489;28;19968;-94
2021/07/26 05:15:59;;;;;;;;;;;;;;;26.90;51.97;100909.41;5017839;28;19918;-92
2021/07/26 05:18:32;;;;;;;;;;;;;;;26.44;53.20;100911.94;5016303;28;19913;-91
2021/07/26 05:21:07;;;;;;;;;;;;;;;25.81;55.78;100901.34;5015896;28;19917;-90
2021/07/26 05:23:32;;;;;;;;;;;;;;;26.50;54.13;100901.00;5016221;28;19913;-93
2021/07/26 05:26:00;;;;;;;;;;;;;;;27.05;52.40;100904.00;5017397;28;19971;-92
2021/07/26 05:28:29;;;;;;;;;;;;;;;27.44;51.02;100902.28;5016943;28;19913;-92
2021/07/26 05:30:54;;;;;;;;;;;;;;;27.11;51.49;100899.63;5016631;28;19918;-92
2021/07/26 05:33:21;;;;;;;;;;;;;;;27.96;48.29;100895.13;5016075;28;19939;-92
2021/07/26 05:35:46;;;;;;;;;;;;;;;28.21;48.92;100910.59;5017296;28;19932;-90
2021/07/26 05:38:31;;;;;;;;;;;;;;;28.04;49.05;100909.88;5016761;28;19917;-93
2021/07/26 05:40:57;;;;;;;;;;;;;;;26.78;52.98;100900.59;5020140;28;19917;-91
2021/07/26 05:46:17;;;;;;;;;;;;;;;27.33;50.99;100900.78;5015404;22;19921;-90
2021/07/26 05:48:43;;;;;;;;;;;;;;;26.47;53.60;100901.34;5027370;28;19925;-92
2021/07/26 05:51:09;;;;;;;;;;;;;;;27.04;52.76;100897.59;5022364;28;19917;-88
2021/07/26 05:53:35;;;;;;;;;;;;;;;27.40;51.89;100905.44;5020388;28;19928;-94
2021/07/26 05:56:03;;;;;;;;;;;;;;;27.28;51.68;100904.06;5021618;28;19921;-95
2021/07/26 05:58:30;;;;;;;;;;;;;;;26.50;54.75;100891.81;5024141;28;20362;-94
2021/07/26 06:01:23;;;;;;;;;;;;;;;26.87;53.00;100893.13;5039859;28;19928;-94
2021/07/26 06:04:16;;;;;;;;;;;;;;;26.47;54.08;100893.03;5041898;28;19917;-96
2021/07/26 06:07:17;;;;;;;;;;;;;;;26.39;55.37;100904.16;5021597;28;19921;-94
2021/07/26 06:09:42;;;;;;;;;;;;;;;26.48;55.56;100916.09;4988755;28;19917;-92
2021/07/26 06:12:12;;;;;;;;;;;;;;;25.73;57.74;100912.44;5021651;28;19924;-95
2021/07/26 06:14:42;;;;;;;;;;;;;;;26.15;56.29;100916.13;5030080;28;19917;-94
2021/07/26 06:17:19;;;;;;;;;;;;;;;25.71;57.80;100916.41;5030460;28;19917;-93
2021/07/26 06:19:45;;;;;;;;;;;;;;;25.85;57.53;100914.84;5024583;28;19929;-94
2021/07/26 06:22:10;;;;;;;;;;;;;;;26.93;54.05;100909.06;5027759;28;19921;-92
2021/07/26 06:24:35;;;;;;;;;;;;;;;26.88;54.09;100906.81;5025430;28;19917;-94
2021/07/26 06:27:02;;;;;;;;;;;;;;;26.34;56.04;100912.13;5023682;28;19917;-93
2021/07/26 06:29:27;;;;;;;;;;;;;;;27.06;54.34;100914.06;5024574;28;19921;-93
2021/07/26 06:31:52;;;;;;;;;;;;;;;26.62;55.21;100915.38;5024485;28;20394;-93
2021/07/26 06:34:18;;;;;;;;;;;;;;;25.72;58.44;100926.47;5026399;28;19917;-93
2021/07/26 06:36:44;;;;;;;;;;;;;;;26.41;56.38;100923.41;5023840;28;20382;-92
2021/07/26 06:39:11;;;;;;;;;;;;;;;26.62;55.93;100920.94;5024323;28;19917;-93
2021/07/26 06:41:37;;;;;;;;;;;;;;;26.99;54.94;100922.22;5026315;28;19917;-93
2021/07/26 06:44:03;;;;;;;;;;;;;;;27.01;54.49;100919.25;5026332;28;19918;-95
2021/07/26 06:46:28;;;;;;;;;;;;;;;26.11;57.21;100935.00;5027279;28;19932;-94
2021/07/26 06:48:54;;;;;;;;;;;;;;;26.85;55.15;100931.31;5027759;28;20070;-93
2021/07/26 06:51:22;;;;;;;;;;;;;;;26.25;57.63;100936.22;5012352;28;19964;-94
2021/07/26 06:53:52;;;;;;;;;;;;;;;26.15;57.27;100941.94;5037213;28;19906;-95
2021/07/26 06:58:45;;;;;;;;;;;;;;;26.73;55.63;100941.06;5036890;22;20268;-88
2021/07/26 07:01:15;;;;;;;;;;;;;;;26.24;57.15;100945.59;5026597;28;19929;-91
2021/07/26 07:03:41;;;;;;;;;;;;;;;26.77;55.60;100942.41;5015544;28;19971;-90
2021/07/26 07:06:08;;;;;;;;;;;;;;;27.17;55.03;100937.78;4998027;28;19968;-89
2021/07/26 07:08:33;;;;;;;;;;;;;;;26.43;56.09;100944.34;5001422;28;19925;-87
2021/07/26 07:11:02;;;;;;;;;;;;;;;26.80;55.31;100945.72;5000372;28;19921;-90
2021/07/26 07:13:28;;;;;;;;;;;;;;;26.63;56.86;100952.31;5008764;28;19924;-84
2021/07/26 07:15:53;;;;;;;;;;;;;;;26.20;58.50;100949.75;5017601;28;19918;-87
2021/07/26 07:18:18;;;;;;;;;;;;;;;26.75;57.57;100937.03;5017289;28;20272;-88
2021/07/26 07:20:43;;;;;;;;;;;;;;;27.29;55.81;100943.81;5017468;28;20363;-88
2021/07/26 07:23:08;;;;;;;;;;;;;;;26.99;56.36;100943.59;5017909;28;19956;-87
2021/07/26 07:25:35;;;;;;;;;;;;;;;27.68;54.08;100938.25;5017973;28;20019;-90
2021/07/26 07:28:00;;;;;;;;;;;;;;;26.66;55.90;100949.19;5018325;28;19960;-89
2021/07/26 07:30:25;;;;;;;;;;;;;;;27.17;54.95;100946.13;5017623;28;19918;-87
2021/07/26 07:32:52;;;;;;;;;;;;;;;26.98;55.84;100952.94;5016084;28;19980;-91
2021/07/26 07:35:17;;;;;;;;;;;;;;;27.39;55.12;100941.72;5020493;28;19917;-91
2021/07/26 07:37:43;;;;;;;;;;;;;;;28.13;52.03;100938.50;5021079;28;19943;-90
2021/07/26 07:40:08;;;;;;;;;;;;;;;27.67;52.95;100933.72;5018041;28;19957;-89
2021/07/26 07:42:34;;;;;;;;;;;;;;;27.68;52.08;100942.94;5019382;28;20294;-91
2021/07/26 07:44:59;;;;;;;;;;;;;;;29.21;48.14;100946.66;5021346;28;20363;-89
2021/07/26 07:47:24;;;;;;;;;;;;;;;29.26;47.38;100953.38;5017592;28;19922;-88
2021/07/26 07:49:49;;;;;;;;;;;;;;;29.20;48.97;100948.56;5017242;28;19964;-89
2021/07/26 07:52:23;;;;;;;;;;;;;;;28.06;50.68;100955.03;5016625;28;20310;-90
2021/07/26 07:54:49;;;;;;;;;;;;;;;28.52;50.11;100956.94;5018568;28;19921;-89
2021/07/26 07:57:16;;;;;;;;;;;;;;;27.90;51.49;100964.34;5015953;28;19929;-87
2021/07/26 07:59:41;;;;;;;;;;;;;;;28.20;50.95;100956.16;5016310;28;19985;-86
2021/07/26 08:02:08;;;;;;;;;;;;;;;28.02;51.05;100958.38;5017958;28;19953;-88
2021/07/26 08:04:35;;;;;;;;;;;;;;;28.40;49.60;100966.75;5017649;28;19914;-86
2021/07/26 08:07:00;;;;;;;;;;;;;;;28.26;50.35;100969.34;5034903;28;19930;-87
2021/07/26 08:09:26;;;;;;;;;;;;;;;27.77;52.54;100966.88;5027887;28;19929;-85
2021/07/26 08:11:55;;;;;;;;;;;;;;;28.46;49.97;100971.59;5016582;28;19918;-85
2021/07/26 08:14:20;;;;;;;;;;;;;;;28.34;49.82;100964.72;4998871;28;19971;-85
2021/07/26 08:16:45;;;;;;;;;;;;;;;27.82;51.67;100972.72;4995813;28;19921;-86
2021/07/26 08:19:10;;;;;;;;;;;;;;;28.33;50.78;100976.94;4994963;28;19973;-85
2021/07/26 08:21:36;;;;;;;;;;;;;;;28.09;51.85;100968.56;5010118;28;20368;-86
2021/07/26 08:24:02;;;;;;;;;;;;;;;28.56;50.53;100977.72;4993777;28;20386;-86
2021/07/26 08:26:28;;;;;;;;;;;;;;;28.00;50.56;100972.47;4996635;28;19925;-85
2021/07/26 08:28:53;;;;;;;;;;;;;;;28.06;51.15;100968.94;4996792;28;20560;-86
2021/07/26 08:31:18;;;;;;;;;;;;;;;28.20;49.73;100964.50;4996326;28;19921;-85
2021/07/26 08:33:43;;;;;;;;;;;;;;;27.58;52.48;100971.84;5012137;28;19977;-85
2021/07/26 08:36:09;;;;;;;;;;;;;;;28.17;51.32;100966.78;5011742;28;20031;-84
2021/07/26 08:38:34;;;;;;;;;;;;;;;28.17;51.04;100967.63;4997595;28;20395;-86
2021/07/26 08:41:00;;;;;;;;;;;;;;;28.26;50.59;100968.44;4995755;28;20001;-86
2021/07/26 08:43:27;;;;;;;;;;;;;;;28.22;49.64;100967.97;4995605;28;20037;-86
2021/07/26 08:45:52;;;;;;;;;;;;;;;28.94;47.90;100962.94;5010910;28;19918;-85
2021/07/26 08:48:18;;;;;;;;;;;;;;;29.84;44.25;100960.97;4995303;28;19925;-86
2021/07/26 08:50:44;;;;;;;;;;;;;;;28.67;47.03;100956.09;4995736;28;20013;-86
2021/07/26 08:53:09;;;;;;;;;;;;;;;28.47;47.82;100962.16;4995922;28;19918;-86
2021/07/26 08:55:35;;;;;;;;;;;;;;;29.45;45.59;100956.59;4995969;28;19918;-85
2021/07/26 08:58:00;;;;;;;;;;;;;;;30.03;44.12;100957.53;5011147;28;19921;-86
2021/07/26 09:00:26;;;;;;;;;;;;;;;28.90;46.13;100959.69;4996098;28;20435;-88
2021/07/26 09:02:51;;;;;;;;;;;;;;;28.87;46.25;100956.44;4995252;28;19918;-85
2021/07/26 09:05:17;;;;;;;;;;;;;;;29.29;45.90;100964.13;4996195;28;20017;-86
2021/07/26 09:07:44;;;;;;;;;;;;;;;29.22;45.91;100965.09;4995341;28;20430;-87
2021/07/26 09:10:15;;;;;;;;;;;;;;;28.45;46.72;100967.94;4996160;28;19928;-85
2021/07/26 09:12:41;;;;;;;;;;;;;;;28.48;46.77;100966.69;4995264;28;19918;-86
2021/07/26 09:15:21;;;;;;;;;;;;;;;29.01;45.04;100960.28;4994925;28;20379;-86
2021/07/26 09:17:46;;;;;;;;;;;;;;;28.98;45.67;100964.31;5010878;28;20368;-87
2021/07/26 09:20:12;;;;;;;;;;;;;;;29.92;42.96;100955.25;5010790;28;19925;-86
2021/07/26 09:22:39;;;;;;;;;;;;;;;30.22;42.61;100960.72;4995358;28;19914;-85
2021/07/26 09:25:24;;;;;;;;;;;;;;;30.31;42.35;100950.28;4995759;28;19924;-84
2021/07/26 09:28:09;;;;;;;;;;;;;;;28.41;46.59;100966.59;4993089;28;19932;-86
2021/07/26 09:30:35;;;;;;;;;;;;;;;29.09;45.11;100962.94;4995200;28;19918;-85
2021/07/26 09:33:02;;;;;;;;;;;;;;;28.39;47.23;100962.25;5010785;28;20453;-85
2021/07/26 09:35:27;;;;;;;;;;;;;;;28.42;47.02;100970.22;5009580;28;19961;-84
2021/07/26 09:37:57;;;;;;;;;;;;;;;28.97;45.62;100965.34;4993460;28;20007;-87
2021/07/26 09:40:23;;;;;;;;;;;;;;;28.89;46.82;100969.09;5008942;28;19918;-85
2021/07/26 09:42:48;;;;;;;;;;;;;;;28.95;46.37;100964.69;5008093;28;20777;-84
2021/07/26 09:45:17;;;;;;;;;;;;;;;27.62;49.60;100966.78;4993758;28;19924;-86
2021/07/26 09:47:42;;;;;;;;;;;;;;;28.16;48.44;100967.81;4995679;28;20373;-86
2021/07/26 09:50:08;;;;;;;;;;;;;;;28.26;47.87;100965.66;4998405;28;20016;-85
2021/07/26 09:52:33;;;;;;;;;;;;;;;29.48;44.27;100961.78;5013373;28;19921;-85
2021/07/26 09:54:59;;;;;;;;;;;;;;;29.40;45.80;100967.50;5013363;28;19929;-87
2021/07/26 09:57:24;;;;;;;;;;;;;;;28.61;48.01;100969.75;5014718;28;19941;-86
2021/07/26 09:59:50;;;;;;;;;;;;;;;29.46;45.30;100970.34;4999650;28;19918;-83
2021/07/26 10:02:25;;;;;;;;;;;;;;;29.16;44.42;100973.13;5001407;28;19913;-90
2021/07/26 10:04:51;;;;;;;;;;;;;;;29.62;42.91;100963.69;5000662;28;20307;-84
2021/07/26 10:07:17;;;;;;;;;;;;;;;29.22;43.89;100977.09;4998216;28;19921;-86
2021/07/26 10:09:44;;;;;;;;;;;;;;;29.12;44.77;100968.13;5012565;28;20012;-84
2021/07/26 10:12:12;;;;;;;;;;;;;;;29.05;44.30;100973.63;5011409;28;19928;-85
2021/07/26 10:14:38;;;;;;;;;;;;;;;28.62;45.29;100965.03;5017935;28;19917;-88
2021/07/26 10:17:05;;;;;;;;;;;;;;;28.35;46.51;100970.09;5016446;28;19921;-85
2021/07/26 10:19:31;;;;;;;;;;;;;;;29.44;44.64;100963.22;5018273;28;19921;-88
2021/07/26 10:21:57;;;;;;;;;;;;;;;29.09;44.71;100968.53;5018349;28;19918;-90
2021/07/26 10:24:23;;;;;;;;;;;;;;;29.34;43.73;100964.41;5018411;28;19924;-88
2021/07/26 10:26:49;;;;;;;;;;;;;;;28.94;45.41;100966.63;5017362;28;20006;-89
2021/07/26 10:29:17;;;;;;;;;;;;;;;28.95;45.01;100953.53;5017465;28;20422;-89
2021/07/26 10:31:44;;;;;;;;;;;;;;;28.35;46.88;100966.47;5014968;28;19945;-90
2021/07/26 10:34:19;;;;;;;;;;;;;;;28.97;45.51;100963.44;5005365;28;19921;-88
2021/07/26 10:36:48;;;;;;;;;;;;;;;29.88;43.10;100956.72;4998474;28;19956;-88
2021/07/26 10:39:14;;;;;;;;;;;;;;;29.78;43.83;100965.38;4997156;28;19918;-91
2021/07/26 10:41:42;;;;;;;;;;;;;;;29.29;44.32;100964.13;5014673;28;19918;-89
2021/07/26 10:44:08;;;;;;;;;;;;;;;29.33;45.19;100970.16;5018068;28;19964;-89
2021/07/26 10:46:52;;;;;;;;;;;;;;;28.52;46.17;100965.28;5017373;28;20044;-89
2021/07/26 10:49:18;;;;;;;;;;;;;;;28.18;47.13;100971.31;5016494;28;19913;-89
2021/07/26 10:51:49;;;;;;;;;;;;;;;30.02;43.42;100978.09;5016298;28;19924;-87
2021/07/26 10:54:31;;;;;;;;;;;;;;;30.07;43.59;100971.94;5017899;28;20389;-88
2021/07/26 10:57:00;;;;;;;;;;;;;;;31.20;40.11;100960.84;5015722;28;19917;-85
2021/07/26 10:59:25;;;;;;;;;;;;;;;30.51;41.04;100965.31;5015499;28;19921;-89
2021/07/26 11:02:03;;;;;;;;;;;;;;;28.60;45.77;100965.22;5015001;28;19940;-85
2021/07/26 11:04:35;;;;;;;;;;;;;;;29.77;43.02;100966.41;5017204;28;20311;-87
2021/07/26 11:07:01;;;;;;;;;;;;;;;30.16;42.03;100965.16;5016914;28;20020;-87
2021/07/26 11:09:32;;;;;;;;;;;;;;;30.92;40.13;100963.66;5016073;28;19914;-85
2021/07/26 11:11:58;;;;;;;;;;;;;;;30.66;40.59;100956.81;5014898;28;19918;-83
2021/07/26 11:14:23;;;;;;;;;;;;;;;30.03;42.38;100965.03;5014975;28;19922;-88
2021/07/26 11:16:48;;;;;;;;;;;;;;;30.27;41.00;100968.47;5014475;28;20007;-84
2021/07/26 11:19:32;;;;;;;;;;;;;;;30.43;41.13;100970.16;5037322;28;20092;-86
2021/07/26 11:21:57;;;;;;;;;;;;;;;30.53;41.19;100960.38;5037546;28;19994;-86
2021/07/26 11:24:41;;;;;;;;;;;;;;;30.79;39.74;100963.59;5028581;28;19921;-83
2021/07/26 11:27:09;;;;;;;;;;;;;;;31.23;38.80;100970.75;5021199;28;19922;-87
2021/07/26 11:29:35;;;;;;;;;;;;;;;31.65;37.86;100963.25;5015681;28;19928;-87
2021/07/26 11:32:00;;;;;;;;;;;;;;;30.53;38.73;100965.09;5014439;28;20020;-88
2021/07/26 11:34:29;;;;;;;;;;;;;;;31.02;37.83;100958.59;5014538;28;20407;-88
2021/07/26 11:37:02;;;;;;;;;;;;;;;29.30;42.70;100967.78;5013939;28;19925;-87
2021/07/26 11:39:42;;;;;;;;;;;;;;;28.80;44.09;100976.66;5014026;28;19917;-85
2021/07/26 11:42:07;;;;;;;;;;;;;;;30.47;40.86;100971.47;5031587;28;19921;-84
2021/07/26 11:44:32;;;;;;;;;;;;;;;28.76;44.49;100968.88;5012713;28;19922;-87
2021/07/26 11:46:58;;;;;;;;;;;;;;;29.12;42.60;100968.13;5014011;28;19923;-88
2021/07/26 11:49:24;;;;;;;;;;;;;;;29.95;40.94;100962.38;5014520;28;20051;-87
2021/07/26 11:51:49;;;;;;;;;;;;;;;28.89;42.11;100968.22;5015866;28;19917;-87
2021/07/26 11:54:15;;;;;;;;;;;;;;;28.05;43.47;100958.88;5013121;28;19929;-86
2021/07/26 11:56:40;;;;;;;;;;;;;;;29.06;41.75;100966.13;5013120;28;19980;-86
2021/07/26 11:59:16;;;;;;;;;;;;;;;27.59;46.86;100975.47;5014585;28;19944;-90
2021/07/26 12:01:53;;;;;;;;;;;;;;;28.36;46.50;100984.91;5009930;28;19918;-87
2021/07/26 12:04:18;;;;;;;;;;;;;;;29.22;44.01;100985.47;5014060;28;19919;-86
2021/07/26 12:06:51;;;;;;;;;;;;;;;29.97;42.74;100982.53;5017189;28;20306;-86
2021/07/26 12:09:16;;;;;;;;;;;;;;;29.79;42.50;100978.25;5013410;28;20260;-88
2021/07/26 12:11:41;;;;;;;;;;;;;;;30.07;43.00;100983.09;5014614;28;19933;-85
2021/07/26 12:14:23;;;;;;;;;;;;;;;30.02;43.80;100985.63;5014589;28;19917;-85
2021/07/26 12:16:58;;;;;;;;;;;;;;;28.88;47.40;100997.13;4996613;28;19918;-89
2021/07/26 12:19:23;;;;;;;;;;;;;;;28.80;48.21;100992.50;4999209;28;19972;-89
2021/07/26 12:21:48;;;;;;;;;;;;;;;29.32;46.42;100996.31;4996510;28;19930;-88
2021/07/26 12:24:14;;;;;;;;;;;;;;;29.66;46.27;100987.31;5005231;28;19926;-86
2021/07/26 12:26:58;;;;;;;;;;;;;;;30.35;44.68;100991.53;5003547;28;19925;-86
2021/07/26 12:29:23;;;;;;;;;;;;;;;30.33;43.24;100987.22;4994629;28;20291;-86
2021/07/26 12:32:01;;;;;;;;;;;;;;;30.68;41.61;100982.63;4998947;28;19936;-90
2021/07/26 12:34:26;;;;;;;;;;;;;;;30.12;42.61;100991.75;5011980;28;19922;-89
2021/07/26 12:36:56;;;;;;;;;;;;;;;30.34;42.42;100989.78;5016311;28;19952;-91
2021/07/26 12:39:34;;;;;;;;;;;;;;;31.18;41.07;100992.88;4998870;28;19918;-90
2021/07/26 12:42:18;;;;;;;;;;;;;;;29.39;44.15;101000.06;5013439;28;19922;-88
2021/07/26 12:44:43;;;;;;;;;;;;;;;29.29;44.43;101000.34;5013999;28;19917;-88
2021/07/26 12:47:23;;;;;;;;;;;;;;;30.15;42.61;100988.56;5014030;28;19929;-89
2021/07/26 12:49:48;;;;;;;;;;;;;;;29.48;42.47;100989.66;5015655;28;19917;-87
2021/07/26 12:52:15;;;;;;;;;;;;;;;28.94;43.88;100982.44;5014971;28;19952;-88
2021/07/26 12:54:43;;;;;;;;;;;;;;;30.21;41.66;100976.59;5014609;28;19956;-86